createdAt,value
2019-05-14T00:01:39.041Z,78.26
2019-05-14T00:04:06.558Z,79.40
2019-05-14T00:06:34.068Z,79.51
2019-05-14T00:09:01.568Z,79.72
2019-05-14T00:11:31.206Z,79.08
2019-05-14T00:13:58.317Z,79.07
2019-05-14T00:16:25.828Z,79.16
2019-05-14T00:18:53.321Z,79.63
2019-05-14T00:21:21.216Z,79.56
2019-05-14T00:23:50.998Z,79.55
2019-05-14T00:26:18.120Z,79.60
2019-05-14T00:28:45.628Z,79.91
2019-05-14T00:31:13.125Z,79.73
2019-05-14T00:33:41.942Z,79.83
2019-05-14T00:36:11.244Z,79.56
2019-05-14T00:38:38.921Z,80.79
2019-05-14T00:41:06.422Z,81.11
2019-05-14T00:43:33.924Z,81.38
2019-05-14T00:46:01.848Z,81.07
2019-05-14T00:48:31.760Z,81.26
2019-05-14T00:50:58.960Z,81.43
2019-05-14T00:53:26.469Z,81.89
2019-05-14T00:55:53.970Z,81.71
2019-05-14T00:58:21.917Z,81.04
2019-05-14T01:00:49.420Z,81.09
2019-05-14T01:03:16.939Z,80.73
2019-05-14T01:05:44.437Z,79.97
2019-05-14T01:08:12.148Z,80.49
2019-05-14T01:13:11.105Z,80.50
2019-05-14T01:15:38.271Z,80.20
2019-05-14T01:18:05.775Z,81.56
2019-05-14T01:20:33.278Z,81.42
2019-05-14T01:23:02.334Z,81.69
2019-05-14T01:25:31.715Z,82.63
2019-05-14T01:28:01.642Z,82.78
2019-05-14T01:30:28.660Z,83.21
2019-05-14T01:32:56.164Z,82.10
2019-05-14T01:35:23.658Z,81.56
2019-05-14T01:37:52.217Z,82.55
2019-05-14T01:40:21.866Z,82.98
2019-05-14T01:42:52.057Z,82.77
2019-05-14T01:45:27.054Z,83.92
2019-05-14T01:47:47.964Z,83.78
2019-05-14T01:50:15.460Z,83.21
2019-05-14T01:52:43.736Z,83.58
2019-05-14T01:55:11.541Z,83.99
2019-05-14T01:57:39.112Z,84.36
2019-05-14T02:00:08.050Z,84.03
2019-05-14T02:02:35.846Z,84.37
2019-05-14T02:05:04.113Z,83.81
2019-05-14T02:07:31.612Z,83.93
2019-05-14T02:10:00.998Z,84.05
2019-05-14T02:12:28.588Z,84.20
2019-05-14T02:14:56.092Z,84.11
2019-05-14T02:17:23.588Z,84.61
2019-05-14T02:19:51.656Z,85.51
2019-05-14T02:22:21.476Z,85.05
2019-05-14T02:24:48.593Z,85.77
2019-05-14T02:27:16.084Z,84.92
2019-05-14T02:29:44.261Z,85.40
2019-05-14T02:32:11.835Z,85.97
2019-05-14T02:34:40.156Z,85.92
2019-05-14T02:37:09.305Z,86.03
2019-05-14T02:39:40.568Z,85.85
2019-05-14T02:42:09.555Z,85.68
2019-05-14T02:44:36.294Z,85.58
2019-05-14T02:47:10.155Z,85.29
2019-05-14T02:49:39.820Z,84.44
2019-05-14T02:52:09.924Z,84.59
2019-05-14T02:54:40.021Z,84.69
2019-05-14T02:57:05.618Z,85.97
2019-05-14T02:59:33.128Z,86.06
2019-05-14T03:02:01.389Z,86.10
2019-05-14T03:04:30.041Z,86.03
2019-05-14T03:06:59.208Z,86.25
2019-05-14T03:09:29.348Z,86.56
2019-05-14T03:11:59.321Z,87.00
2019-05-14T03:14:25.565Z,86.81
2019-05-14T03:16:53.062Z,86.85
2019-05-14T03:19:20.574Z,87.22
2019-05-14T03:21:50.197Z,87.32
2019-05-14T03:24:19.611Z,87.27
2019-05-14T03:26:49.961Z,86.81
2019-05-14T03:29:19.395Z,86.66
2019-05-14T03:31:51.852Z,87.14
2019-05-14T03:34:15.266Z,87.28
2019-05-14T03:36:43.886Z,87.29
2019-05-14T03:39:11.759Z,86.81
2019-05-14T03:41:39.890Z,87.21
2019-05-14T03:44:09.968Z,87.52
2019-05-14T03:46:45.654Z,87.24
2019-05-14T03:49:09.302Z,86.77
2019-05-14T03:51:39.356Z,87.22
2019-05-14T03:54:11.970Z,87.18
2019-05-14T03:56:39.222Z,86.83
2019-05-14T03:59:09.470Z,86.50
2019-05-14T04:01:35.848Z,86.60
2019-05-14T04:04:03.401Z,86.44
2019-05-14T04:06:30.889Z,86.45
2019-05-14T04:09:00.654Z,86.05
2019-05-14T04:11:29.400Z,86.78
2019-05-14T04:13:59.902Z,87.20
2019-05-14T04:16:29.244Z,86.99
2019-05-14T04:18:59.202Z,86.37
2019-05-14T04:21:24.888Z,86.24
2019-05-14T04:23:53.045Z,85.87
2019-05-14T04:26:21.176Z,86.19
2019-05-14T04:28:50.474Z,86.31
2019-05-14T04:31:19.339Z,86.44
2019-05-14T04:33:49.973Z,86.31
2019-05-14T04:36:19.223Z,86.01
2019-05-14T04:38:50.356Z,85.57
2019-05-14T04:41:14.568Z,85.08
2019-05-14T04:43:42.076Z,85.50
2019-05-14T04:46:10.671Z,85.95
2019-05-14T04:48:42.971Z,85.14
2019-05-14T04:51:09.778Z,84.70
2019-05-14T04:53:39.348Z,82.66
2019-05-14T04:56:09.746Z,82.01
2019-05-14T04:58:40.981Z,81.47
2019-05-14T05:01:09.507Z,81.01
2019-05-14T05:03:35.731Z,79.54
2019-05-14T05:06:03.232Z,79.40
2019-05-14T05:08:30.985Z,78.27
2019-05-14T05:11:00.086Z,78.91
2019-05-14T05:13:29.137Z,78.08
2019-05-14T05:15:59.484Z,77.36
2019-05-14T05:18:29.127Z,76.92
2019-05-14T05:20:55.526Z,75.91
2019-05-14T05:23:23.016Z,76.13
2019-05-14T05:25:50.527Z,76.54
2019-05-14T05:28:19.080Z,75.46
2019-05-14T05:30:48.901Z,74.95
2019-05-14T05:33:18.638Z,75.41
2019-05-14T05:35:45.753Z,76.65
2019-05-14T05:38:13.288Z,76.22
2019-05-14T05:40:40.793Z,75.31
2019-05-14T05:43:08.944Z,74.72
2019-05-14T05:45:38.064Z,74.91
2019-05-14T05:48:08.071Z,74.02
2019-05-14T05:50:35.294Z,75.16
2019-05-14T05:53:02.788Z,74.02
2019-05-14T05:55:30.292Z,73.80
2019-05-14T05:57:58.780Z,74.63
2019-05-14T06:00:39.466Z,73.63
2019-05-14T06:03:05.332Z,72.37
2019-05-14T06:05:32.893Z,73.85
2019-05-14T06:08:00.680Z,71.92
2019-05-14T06:10:29.086Z,70.91
2019-05-14T06:12:58.563Z,71.46
2019-05-14T06:15:44.175Z,70.89
2019-05-14T06:18:11.677Z,70.63
2019-05-14T06:20:28.175Z,72.13
2019-05-14T06:22:55.512Z,70.65
2019-05-14T06:25:23.007Z,72.34
2019-05-14T06:27:50.508Z,71.41
2019-05-14T06:30:34.129Z,70.93
2019-05-14T06:33:01.710Z,70.58
2019-05-14T06:35:29.552Z,69.75
2019-05-14T06:37:58.244Z,69.16
2019-05-14T06:40:28.599Z,68.55
2019-05-14T06:42:55.645Z,67.77
2019-05-14T06:45:23.141Z,66.78
2019-05-14T06:47:50.644Z,66.17
2019-05-14T06:50:18.999Z,66.23
2019-05-14T06:52:49.103Z,65.43
2019-05-14T06:55:18.046Z,66.58
2019-05-14T06:57:47.889Z,65.04
2019-05-14T07:00:14.988Z,65.05
2019-05-14T07:02:44.233Z,64.03
2019-05-14T07:05:11.940Z,65.27
2019-05-14T07:07:40.441Z,65.94
2019-05-14T07:10:08.992Z,63.37
2019-05-14T07:12:38.794Z,63.31
2019-05-14T07:15:06.315Z,61.41
2019-05-14T07:17:33.819Z,58.73
2019-05-14T07:20:01.792Z,59.54
2019-05-14T07:22:29.301Z,58.36
2019-05-14T07:24:58.691Z,57.79
2019-05-14T07:27:28.213Z,57.52
2019-05-14T07:29:55.253Z,59.51
2019-05-14T07:32:22.782Z,57.88
2019-05-14T07:34:50.276Z,57.63
2019-05-14T07:37:18.218Z,58.67
2019-05-14T07:39:48.704Z,59.79
2019-05-14T07:42:18.269Z,57.64
2019-05-14T07:44:45.340Z,55.43
2019-05-14T07:47:12.858Z,54.52
2019-05-14T07:49:40.355Z,54.45
2019-05-14T07:52:09.416Z,52.37
2019-05-14T07:54:38.984Z,54.68
2019-05-14T07:57:08.696Z,56.77
2019-05-14T07:59:38.128Z,57.57
2019-05-14T08:02:05.460Z,54.94
2019-05-14T08:04:32.956Z,54.98
2019-05-14T08:07:00.746Z,52.71
2019-05-14T08:09:29.075Z,53.32
2019-05-14T08:11:58.565Z,55.74
2019-05-14T08:14:25.808Z,52.40
2019-05-14T08:16:53.353Z,52.16
2019-05-14T08:19:26.502Z,49.35
2019-05-14T08:21:50.401Z,50.37
2019-05-14T08:24:20.166Z,51.89
2019-05-14T08:26:48.703Z,49.67
2019-05-14T08:29:18.074Z,48.23
2019-05-14T08:31:45.752Z,51.38
2019-05-14T08:34:13.604Z,46.38
2019-05-14T08:36:41.100Z,48.68
2019-05-14T08:39:08.975Z,47.69
2019-05-14T08:41:38.330Z,47.95
2019-05-14T08:44:08.327Z,47.38
2019-05-14T08:46:34.997Z,47.87
2019-05-14T08:49:02.524Z,46.74
2019-05-14T08:51:30.096Z,40.97
2019-05-14T08:53:59.255Z,43.91
2019-05-14T08:56:28.182Z,46.74
2019-05-14T08:58:55.797Z,45.65
2019-05-14T09:01:23.297Z,48.08
2019-05-14T09:03:50.818Z,45.16
2019-05-14T09:06:18.830Z,42.62
2019-05-14T09:08:46.487Z,45.84
2019-05-14T09:11:14.933Z,43.81
2019-05-14T09:13:42.437Z,43.86
2019-05-14T09:16:09.933Z,44.24
2019-05-14T09:18:38.476Z,45.67
2019-05-14T09:21:08.467Z,43.03
2019-05-14T09:23:35.907Z,45.34
2019-05-14T09:26:03.402Z,44.51
2019-05-14T09:28:30.908Z,42.94
2019-05-14T09:30:59.626Z,41.26
2019-05-14T09:33:29.650Z,43.89
2019-05-14T09:36:10.997Z,42.87
2019-05-14T09:38:25.855Z,42.32
2019-05-14T09:41:07.097Z,40.25
2019-05-14T09:43:22.592Z,42.27
2019-05-14T09:45:50.091Z,38.19
2019-05-14T09:48:18.043Z,39.49
2019-05-14T09:50:45.768Z,37.03
2019-05-14T09:53:13.276Z,41.54
2019-05-14T09:55:40.783Z,40.20
2019-05-14T09:58:08.351Z,39.44
2019-05-14T10:00:35.859Z,42.91
2019-05-14T10:03:03.445Z,40.85
2019-05-14T10:05:31.299Z,38.03
2019-05-14T10:07:59.476Z,38.30
2019-05-14T10:10:30.504Z,39.33
2019-05-14T10:12:58.181Z,38.83
2019-05-14T10:15:25.645Z,37.29
2019-05-14T10:17:53.146Z,37.18
2019-05-14T10:20:36.453Z,34.83
2019-05-14T10:22:49.880Z,38.13
2019-05-14T10:25:18.216Z,36.88
2019-05-14T10:27:48.403Z,34.96
2019-05-14T10:30:15.336Z,34.46
2019-05-14T10:32:42.871Z,34.36
2019-05-14T10:35:10.428Z,37.69
2019-05-14T10:37:40.030Z,36.96
2019-05-14T10:40:10.111Z,35.90
2019-05-14T10:42:39.982Z,35.07
2019-05-14T10:45:10.091Z,33.42
2019-05-14T10:47:35.393Z,35.06
2019-05-14T10:50:02.901Z,34.46
2019-05-14T10:52:30.401Z,34.59
2019-05-14T10:54:59.323Z,35.92
2019-05-14T10:57:28.890Z,35.51
2019-05-14T10:59:59.102Z,35.56
2019-05-14T11:02:29.034Z,36.24
2019-05-14T11:04:55.816Z,32.90
2019-05-14T11:07:23.315Z,34.60
2019-05-14T11:09:50.828Z,34.43
2019-05-14T11:12:19.243Z,38.99
2019-05-14T11:14:49.436Z,36.11
2019-05-14T11:17:19.414Z,35.00
2019-05-14T11:19:47.857Z,36.50
2019-05-14T11:22:18.229Z,36.82
2019-05-14T11:24:45.111Z,37.81
2019-05-14T11:27:13.933Z,39.79
2019-05-14T11:29:41.746Z,34.41
2019-05-14T11:32:10.018Z,34.87
2019-05-14T11:34:39.022Z,35.13
2019-05-14T11:37:08.521Z,34.07
2019-05-14T11:39:37.986Z,35.97
2019-05-14T11:42:08.271Z,36.67
2019-05-14T11:44:38.255Z,38.83
2019-05-14T11:47:05.736Z,38.78
2019-05-14T11:49:34.516Z,36.08
2019-05-14T11:52:07.777Z,38.00
2019-05-14T11:54:31.249Z,36.68
2019-05-14T11:56:59.002Z,37.81
2019-05-14T11:59:28.451Z,34.16
2019-05-14T12:01:59.116Z,35.33
2019-05-14T12:04:25.132Z,37.20
2019-05-14T12:06:52.641Z,33.49
2019-05-14T12:09:20.164Z,32.99
2019-05-14T12:11:47.724Z,33.60
2019-05-14T12:14:15.224Z,35.47
2019-05-14T12:16:42.733Z,34.56
2019-05-14T12:19:12.050Z,34.68
2019-05-14T12:21:39.898Z,34.25
2019-05-14T12:24:13.433Z,33.82
2019-05-14T12:26:38.514Z,34.08
2019-05-14T12:29:06.346Z,35.56
2019-05-14T12:31:33.848Z,34.49
2019-05-14T12:34:01.361Z,34.47
2019-05-14T12:36:29.541Z,34.82
2019-05-14T12:38:59.186Z,34.65
2019-05-14T12:41:28.732Z,34.16
2019-05-14T12:43:55.485Z,36.09
2019-05-14T12:46:22.985Z,34.49
2019-05-14T12:48:50.483Z,33.34
2019-05-14T12:51:18.640Z,33.83
2019-05-14T12:53:48.759Z,33.64
2019-05-14T12:56:18.559Z,35.31
2019-05-14T12:58:46.046Z,33.04
2019-05-14T13:01:14.939Z,34.81
2019-05-14T13:03:42.428Z,37.24
2019-05-14T13:06:10.377Z,33.35
2019-05-14T13:08:38.714Z,32.33
2019-05-14T13:11:09.275Z,33.54
2019-05-14T13:13:42.319Z,34.38
2019-05-14T13:16:05.820Z,31.40
2019-05-14T13:18:34.178Z,31.05
2019-05-14T13:21:01.687Z,29.92
2019-05-14T13:23:29.414Z,31.09
2019-05-14T13:25:59.028Z,30.32
2019-05-14T13:28:28.932Z,30.67
2019-05-14T13:30:55.492Z,28.61
2019-05-14T13:33:23.018Z,29.04
2019-05-14T13:35:51.794Z,28.42
2019-05-14T13:38:19.298Z,30.65
2019-05-14T13:40:49.103Z,30.74
2019-05-14T13:43:18.722Z,28.09
2019-05-14T13:45:45.416Z,29.03
2019-05-14T13:48:12.963Z,30.52
2019-05-14T13:50:40.748Z,34.04
2019-05-14T13:53:12.875Z,31.47
2019-05-14T13:55:46.024Z,32.71
2019-05-14T13:58:09.512Z,34.61
2019-05-14T14:00:37.306Z,34.95
2019-05-14T14:03:04.816Z,35.05
2019-05-14T14:05:32.644Z,32.09
2019-05-14T14:08:00.150Z,33.50
2019-05-14T14:10:35.555Z,32.09
2019-05-14T14:12:59.657Z,31.20
2019-05-14T14:15:28.711Z,30.64
2019-05-14T14:17:56.298Z,32.12
2019-05-14T14:20:23.788Z,33.40
2019-05-14T14:22:51.296Z,30.80
2019-05-14T14:25:19.788Z,32.17
2019-05-14T14:27:48.728Z,32.24
2019-05-14T14:30:19.227Z,32.40
2019-05-14T14:32:45.589Z,30.16
2019-05-14T14:35:13.146Z,32.00
2019-05-14T14:37:40.711Z,33.69
2019-05-14T14:40:10.250Z,33.29
2019-05-14T14:42:40.112Z,32.76
2019-05-14T14:45:08.631Z,32.37
2019-05-14T14:47:39.382Z,32.92
2019-05-14T14:50:08.352Z,33.98
2019-05-14T14:52:36.083Z,34.42
2019-05-14T14:55:04.238Z,34.98
2019-05-14T14:57:31.746Z,33.13
2019-05-14T15:00:00.027Z,33.39
2019-05-14T15:02:28.820Z,33.42
2019-05-14T15:04:59.621Z,31.65
2019-05-14T15:07:29.925Z,30.43
2019-05-14T15:09:59.457Z,32.47
2019-05-14T15:12:25.768Z,32.36
2019-05-14T15:14:53.353Z,34.43
2019-05-14T15:17:20.864Z,34.21
2019-05-14T15:19:49.929Z,34.39
2019-05-14T15:22:20.812Z,34.59
2019-05-14T15:24:48.904Z,34.55
2019-05-14T15:27:18.755Z,34.10
2019-05-14T15:29:45.873Z,33.13
2019-05-14T15:32:13.365Z,33.88
2019-05-14T15:34:41.641Z,34.42
2019-05-14T15:37:09.171Z,32.21
2019-05-14T15:39:39.131Z,33.33
2019-05-14T15:42:07.066Z,34.98
2019-05-14T15:44:48.979Z,34.11
2019-05-14T15:47:11.214Z,34.59
2019-05-14T15:49:38.796Z,35.79
2019-05-14T15:52:05.436Z,33.52
2019-05-14T15:54:42.268Z,34.35
2019-05-14T15:57:02.164Z,33.70
2019-05-14T15:59:29.672Z,31.83
2019-05-14T16:01:57.168Z,32.76
2019-05-14T16:04:24.677Z,32.35
2019-05-14T16:06:52.197Z,33.48
2019-05-14T16:09:19.785Z,34.50
2019-05-14T16:11:48.295Z,34.91
2019-05-14T16:14:15.960Z,34.30
2019-05-14T16:16:43.457Z,35.42
2019-05-14T16:19:10.960Z,35.36
2019-05-14T16:21:38.758Z,34.56
2019-05-14T16:24:08.331Z,34.79
2019-05-14T16:26:36.048Z,32.84
2019-05-14T16:29:03.948Z,33.43
2019-05-14T16:31:31.842Z,33.20
2019-05-14T16:33:59.513Z,33.49
2019-05-14T16:36:28.884Z,34.61
2019-05-14T16:38:58.516Z,34.23
2019-05-14T16:41:25.452Z,34.83
2019-05-14T16:43:52.964Z,35.63
2019-05-14T16:46:20.464Z,35.46
2019-05-14T16:48:48.826Z,35.42
2019-05-14T16:51:19.311Z,34.20
2019-05-14T16:53:48.677Z,35.83
2019-05-14T16:56:15.960Z,35.74
2019-05-14T16:58:43.461Z,34.93
2019-05-14T17:01:11.770Z,36.91
2019-05-14T17:03:40.826Z,36.88
2019-05-14T17:06:08.685Z,34.60
2019-05-14T17:08:39.131Z,34.56
2019-05-14T17:11:05.688Z,36.02
2019-05-14T17:13:33.186Z,36.48
2019-05-14T17:16:00.864Z,36.51
2019-05-14T17:18:28.780Z,35.44
2019-05-14T17:20:56.439Z,34.84
2019-05-14T17:23:24.101Z,35.78
2019-05-14T17:25:52.748Z,36.54
2019-05-14T17:28:20.244Z,36.89
2019-05-14T17:30:49.149Z,35.89
2019-05-14T17:33:18.547Z,35.82
2019-05-14T17:35:48.299Z,37.68
2019-05-14T17:38:18.423Z,36.71
2019-05-14T17:40:48.673Z,37.87
2019-05-14T17:43:15.156Z,37.29
2019-05-14T17:45:43.118Z,39.16
2019-05-14T17:48:10.609Z,38.81
2019-05-14T17:50:38.539Z,39.11
2019-05-14T17:53:06.184Z,40.81
2019-05-14T17:55:44.547Z,40.95
2019-05-14T17:58:02.951Z,40.65
2019-05-14T18:00:30.525Z,39.81
2019-05-14T18:07:00.380Z,39.36
2019-05-14T18:09:29.340Z,40.30
2019-05-14T18:11:58.731Z,40.70
2019-05-14T18:14:28.241Z,40.87
2019-05-14T18:16:58.263Z,39.69
2019-05-14T18:19:25.035Z,41.01
2019-05-14T18:21:52.597Z,41.49
2019-05-14T18:24:20.142Z,41.36
2019-05-14T18:26:48.121Z,44.31
2019-05-14T18:29:18.730Z,43.30
2019-05-14T18:31:45.696Z,44.86
2019-05-14T18:34:13.494Z,42.88
2019-05-14T18:36:41.094Z,44.94
2019-05-14T18:39:09.469Z,44.37
2019-05-14T18:41:38.870Z,43.10
2019-05-14T18:44:08.248Z,44.98
2019-05-14T18:46:35.506Z,45.86
2019-05-14T18:49:03.005Z,45.87
2019-05-14T18:51:30.514Z,44.30
2019-05-14T18:53:58.713Z,44.73
2019-05-14T18:56:29.170Z,48.67
2019-05-14T18:58:57.651Z,45.05
2019-05-14T19:01:25.178Z,45.63
2019-05-14T19:03:52.688Z,46.07
2019-05-14T19:06:20.192Z,44.87
2019-05-14T19:08:48.326Z,45.99
2019-05-14T19:11:16.077Z,48.31
2019-05-14T19:13:43.927Z,46.48
2019-05-14T19:16:11.681Z,46.02
2019-05-14T19:18:39.849Z,46.83
2019-05-14T19:21:08.807Z,47.52
2019-05-14T19:23:38.503Z,48.49
2019-05-14T19:26:05.750Z,49.68
2019-05-14T19:28:33.228Z,48.82
2019-05-14T19:31:00.739Z,49.44
2019-05-14T19:33:31.242Z,49.29
2019-05-14T19:35:58.753Z,50.80
2019-05-14T19:38:26.247Z,50.04
2019-05-14T19:40:53.743Z,51.38
2019-05-14T19:43:21.240Z,50.71
2019-05-14T19:46:09.852Z,50.95
2019-05-14T19:48:37.352Z,51.08
2019-05-14T19:51:05.086Z,51.06
2019-05-14T19:53:32.589Z,52.50
2019-05-14T19:56:00.117Z,49.94
2019-05-14T19:58:29.305Z,51.75
2019-05-14T20:00:57.184Z,50.70
2019-05-14T20:03:24.791Z,53.30
2019-05-14T20:05:52.307Z,49.36
2019-05-14T20:08:19.817Z,49.14
2019-05-14T20:10:48.931Z,51.38
2019-05-14T20:13:19.109Z,50.06
2019-05-14T20:15:48.467Z,50.29
2019-05-14T20:18:15.132Z,51.20
2019-05-14T20:20:42.616Z,49.44
2019-05-14T20:23:10.118Z,51.43
2019-05-14T20:25:38.772Z,51.62
2019-05-14T20:28:08.154Z,52.04
2019-05-14T20:30:38.374Z,51.82
2019-05-14T20:33:05.280Z,53.58
2019-05-14T20:35:34.965Z,52.43
2019-05-14T20:38:01.997Z,52.71
2019-05-14T20:40:30.155Z,52.38
2019-05-14T20:42:58.882Z,52.90
2019-05-14T20:45:28.774Z,53.53
2019-05-14T20:47:55.761Z,53.39
2019-05-14T20:50:23.251Z,52.70
2019-05-14T20:52:50.752Z,55.05
2019-05-14T20:55:19.219Z,52.49
2019-05-14T20:57:48.769Z,52.43
2019-05-14T21:00:18.110Z,51.78
2019-05-14T21:02:46.019Z,54.13
2019-05-14T21:05:14.006Z,52.91
2019-05-14T21:07:41.661Z,52.70
2019-05-14T21:10:09.184Z,52.60
2019-05-14T21:12:39.119Z,52.88
2019-05-14T21:15:08.790Z,53.68
2019-05-14T21:17:36.321Z,55.84
2019-05-14T21:20:04.180Z,53.51
2019-05-14T21:22:31.679Z,54.50
2019-05-14T21:24:59.179Z,54.08
2019-05-14T21:27:41.261Z,53.62
2019-05-14T21:29:58.127Z,53.68
2019-05-14T21:32:25.220Z,53.44
2019-05-14T21:34:52.720Z,54.14
2019-05-14T21:37:20.203Z,53.32
2019-05-14T21:39:49.067Z,53.36
2019-05-14T21:42:19.323Z,54.13
2019-05-14T21:44:45.988Z,54.83
2019-05-14T21:47:14.248Z,54.17
2019-05-14T21:49:41.772Z,54.08
2019-05-14T21:52:09.263Z,54.07
2019-05-14T21:54:39.271Z,56.17
2019-05-14T21:57:08.497Z,55.21
2019-05-14T21:59:36.064Z,55.57
2019-05-14T22:02:04.516Z,54.80
2019-05-14T22:04:32.021Z,54.96
2019-05-14T22:06:59.512Z,54.92
2019-05-14T22:09:28.487Z,56.20
2019-05-14T22:11:58.248Z,54.87
2019-05-14T22:14:25.828Z,55.09
2019-05-14T22:16:53.319Z,56.20
2019-05-14T22:19:21.589Z,56.57
2019-05-14T22:21:49.854Z,56.46
2019-05-14T22:24:18.752Z,54.79
2019-05-14T22:26:47.935Z,55.80
2019-05-14T22:29:17.752Z,55.04
2019-05-14T22:31:44.768Z,56.51
2019-05-14T22:34:14.200Z,54.91
2019-05-14T22:36:41.696Z,56.14
2019-05-14T22:39:09.197Z,56.13
2019-05-14T22:41:38.332Z,57.35
2019-05-14T22:44:06.076Z,57.40
2019-05-14T22:46:33.563Z,57.36
2019-05-14T22:49:01.076Z,57.77
2019-05-14T22:51:28.555Z,57.10
2019-05-14T22:53:56.115Z,56.95
2019-05-14T22:56:23.616Z,57.17
2019-05-14T22:58:51.136Z,56.59
2019-05-14T23:01:19.400Z,57.63
2019-05-14T23:03:49.019Z,57.43
2019-05-14T23:06:18.532Z,57.16
2019-05-14T23:15:05.936Z,55.88
2019-05-14T23:17:33.437Z,57.38
2019-05-14T23:20:00.939Z,57.21
2019-05-14T23:22:29.685Z,57.08
2019-05-14T23:24:59.175Z,56.79
2019-05-14T23:27:26.530Z,55.72
2019-05-14T23:29:54.037Z,56.31
2019-05-14T23:32:21.579Z,56.24
2019-05-14T23:34:49.080Z,57.14
2019-05-14T23:37:18.155Z,56.78
2019-05-14T23:39:45.760Z,55.91
2019-05-14T23:42:13.250Z,55.09
2019-05-14T23:44:41.425Z,55.39
2019-05-14T23:47:08.921Z,54.01
2019-05-14T23:49:38.769Z,56.32
2019-05-14T23:52:05.646Z,55.17
2019-05-14T23:54:33.220Z,55.33
2019-05-14T23:57:00.718Z,55.67
2019-05-14T23:59:29.405Z,56.96
